Time;durP1;ratioP1;P1;durP2;ratioP2;P2;SDS_P1;SDS_P2;PMS_P1;PMS_P2;Temp;Humidity;BMP_temperature;BMP_pressure;BME280_temperature;BME280_humidity;BME280_pressure;Samples;Min_cycle;Max_cycle;Signal;HPM_P1;HPM_P2
2021/10/05 00:01:31;;;;;;;21.90;14.60;;;;;;;13.08;75.73;100821.20;94078;1196;78484;-63
2021/10/05 00:03:38;;;;;;;23.50;14.30;;;;;;;13.08;75.72;100822.02;94123;1195;81970;-63
2021/10/05 00:05:46;;;;;;;18.80;12.80;;;;;;;13.06;75.84;100821.16;94118;1195;99381;-70
2021/10/05 00:07:50;;;;;;;20.40;13.60;;;;;;;13.02;75.78;100826.80;94135;1195;86996;-68
2021/10/05 00:09:57;;;;;;;19.30;13.40;;;;;;;13.00;75.76;100823.35;94131;1195;92064;-69
2021/10/05 00:12:01;;;;;;;18.10;12.90;;;;;;;12.98;75.80;100825.02;94077;1195;80649;-70
2021/10/05 00:14:06;;;;;;;20.10;12.70;;;;;;;12.97;75.79;100822.48;94074;1195;81516;-70
2021/10/05 00:16:10;;;;;;;19.60;12.80;;;;;;;12.93;75.84;100821.09;94101;1195;100214;-64
2021/10/05 00:18:14;;;;;;;20.30;13.80;;;;;;;12.90;75.98;100817.67;94128;1195;87317;-63
2021/10/05 00:20:19;;;;;;;20.80;13.60;;;;;;;12.89;75.89;100818.06;94089;1195;94461;-70
2021/10/05 00:22:23;;;;;;;18.90;13.60;;;;;;;12.85;75.94;100815.16;94039;1196;81853;-69
2021/10/05 00:24:30;;;;;;;19.50;13.20;;;;;;;12.81;76.00;100815.86;94088;1196;80889;-69
2021/10/05 00:26:34;;;;;;;21.80;13.40;;;;;;;12.81;76.04;100819.65;94062;1195;100474;-63
2021/10/05 00:28:40;;;;;;;20.20;13.40;;;;;;;12.80;76.04;100819.08;94125;1195;86534;-65
2021/10/05 00:30:44;;;;;;;22.30;14.10;;;;;;;12.79;76.12;100818.64;94185;1195;93191;-69
2021/10/05 00:32:48;;;;;;;20.20;13.10;;;;;;;12.77;76.21;100811.20;94080;1195;80980;-70
2021/10/05 00:34:52;;;;;;;21.90;13.60;;;;;;;12.76;76.16;100814.86;94111;1195;80378;-67
2021/10/05 00:36:56;;;;;;;21.20;13.10;;;;;;;12.74;76.09;100814.70;94112;1196;99142;-70
2021/10/05 00:39:01;;;;;;;18.10;13.90;;;;;;;12.71;76.16;100811.43;94136;1195;88013;-70
2021/10/05 00:41:05;;;;;;;21.70;14.40;;;;;;;12.69;76.37;100815.33;94083;1195;94197;-64
2021/10/05 00:43:10;;;;;;;23.50;14.40;;;;;;;12.70;76.40;100815.42;94103;1195;78238;-64
2021/10/05 00:45:14;;;;;;;22.60;13.40;;;;;;;12.68;76.39;100814.74;94088;1195;82857;-69
2021/10/05 00:47:19;;;;;;;19.00;13.10;;;;;;;12.65;76.35;100814.08;94065;1195;98916;-70
2021/10/05 00:49:23;;;;;;;22.90;13.60;;;;;;;12.62;76.38;100819.34;94116;1196;87992;-69
2021/10/05 00:51:27;;;;;;;23.50;13.40;;;;;;;12.59;76.74;100817.14;94076;1196;94075;-65
2021/10/05 00:53:31;;;;;;;18.90;13.30;;;;;;;12.58;76.68;100817.08;93789;1195;78643;-64
2021/10/05 00:55:37;;;;;;;23.20;14.80;;;;;;;12.57;76.67;100811.25;94138;1195;81158;-65
2021/10/05 00:57:42;;;;;;;23.30;14.00;;;;;;;12.58;76.62;100812.67;94090;1195;99362;-64
2021/10/05 00:59:49;;;;;;;22.10;13.60;;;;;;;12.56;76.62;100808.23;94086;1196;87916;-65
2021/10/05 01:01:54;;;;;;;20.70;14.00;;;;;;;12.54;76.75;100808.42;94079;1195;94293;-64
2021/10/05 01:03:59;;;;;;;21.40;13.80;;;;;;;12.53;76.83;100808.88;94092;1195;78478;-64
2021/10/05 01:06:03;;;;;;;19.90;14.00;;;;;;;12.52;76.75;100813.02;94110;1195;79960;-69
2021/10/05 01:08:08;;;;;;;20.90;14.10;;;;;;;12.50;76.87;100813.95;94075;1195;100466;-70
2021/10/05 01:10:17;;;;;;;19.80;14.10;;;;;;;12.49;76.83;100810.36;94101;1195;86380;-65
2021/10/05 01:12:21;;;;;;;19.70;13.70;;;;;;;12.48;76.93;100811.42;94126;1195;92783;-64
2021/10/05 01:14:26;;;;;;;20.20;13.80;;;;;;;12.45;76.93;100807.90;94066;1195;79514;-64
2021/10/05 01:16:30;;;;;;;22.40;13.60;;;;;;;12.45;76.97;100803.77;94098;1195;80804;-63
2021/10/05 01:18:35;;;;;;;22.60;14.50;;;;;;;12.45;76.98;100800.69;94124;1189;99322;-65
2021/10/05 01:20:54;;;;;;;22.10;14.00;;;;;;;12.43;77.03;100798.55;94050;1195;87509;-64
2021/10/05 01:22:58;;;;;;;23.30;14.50;;;;;;;12.41;77.15;100803.94;94058;1195;93813;-64
2021/10/05 01:25:07;;;;;;;22.40;14.30;;;;;;;12.39;77.09;100802.12;93788;1195;80697;-65
2021/10/05 01:27:12;;;;;;;22.90;14.20;;;;;;;12.38;77.04;100808.79;94092;1196;81817;-64
2021/10/05 01:29:19;;;;;;;21.80;14.90;;;;;;;12.37;77.10;100806.53;94096;1196;99782;-65
2021/10/05 01:31:23;;;;;;;23.70;15.10;;;;;;;12.35;77.20;100807.71;94075;1195;88450;-69
2021/10/05 01:33:29;;;;;;;19.70;13.50;;;;;;;12.34;77.27;100802.73;94055;1195;94590;-69
2021/10/05 01:35:33;;;;;;;21.80;14.10;;;;;;;12.33;77.16;100802.22;94059;1195;81011;-69
2021/10/05 01:37:38;;;;;;;19.70;14.40;;;;;;;12.31;77.24;100802.61;94112;1196;81088;-70
2021/10/05 01:39:42;;;;;;;19.90;14.10;;;;;;;12.29;77.38;100804.52;94088;1195;99111;-69
2021/10/05 01:41:47;;;;;;;20.70;13.60;;;;;;;12.28;77.30;100799.87;94088;1195;86864;-65
2021/10/05 01:43:51;;;;;;;18.60;14.10;;;;;;;12.27;77.41;100793.52;94096;1195;93653;-64
2021/10/05 01:45:58;;;;;;;21.80;13.90;;;;;;;12.26;77.37;100787.89;94084;1195;79601;-70
2021/10/05 01:48:02;;;;;;;22.40;14.70;;;;;;;12.24;77.30;100792.19;94078;1195;80690;-69
2021/10/05 01:50:10;;;;;;;22.80;14.30;;;;;;;12.21;77.50;100793.58;94069;1195;99508;-71
2021/10/05 01:52:15;;;;;;;21.30;14.50;;;;;;;12.21;77.41;100790.03;94090;1196;87289;-69
2021/10/05 01:54:20;;;;;;;23.40;13.80;;;;;;;12.19;77.38;100790.42;94077;1195;94422;-69
2021/10/05 01:56:24;;;;;;;19.10;14.10;;;;;;;12.18;77.53;100792.40;94068;1195;77915;-65
2021/10/05 01:58:29;;;;;;;22.10;15.40;;;;;;;12.16;77.59;100797.52;94107;1196;81801;-65
2021/10/05 02:00:33;;;;;;;23.00;14.80;;;;;;;12.13;77.57;100795.89;94115;1195;99521;-69
2021/10/05 02:02:37;;;;;;;23.10;14.90;;;;;;;12.12;77.72;100794.63;94078;1195;87933;-69
2021/10/05 02:04:44;;;;;;;23.20;15.10;;;;;;;12.10;77.63;100801.25;94024;1195;93635;-69
2021/10/05 02:06:48;;;;;;;24.80;15.20;;;;;;;12.11;77.77;100796.00;94043;1195;79946;-65
2021/10/05 02:08:53;;;;;;;21.70;15.40;;;;;;;12.09;77.75;100794.71;94050;1195;81680;-64
2021/10/05 02:10:57;;;;;;;26.00;16.20;;;;;;;12.07;77.78;100789.94;94061;1195;101039;-65
2021/10/05 02:13:01;;;;;;;17.80;13.40;;;;;;;12.03;77.84;100792.55;94067;1195;87686;-64
2021/10/05 02:15:10;;;;;;;20.10;14.20;;;;;;;12.01;77.92;100792.70;94059;1195;94025;-64
2021/10/05 02:17:17;;;;;;;20.70;14.70;;;;;;;12.00;77.87;100794.98;94053;1195;80558;-66
2021/10/05 02:19:21;;;;;;;21.90;14.40;;;;;;;11.99;77.87;100799.77;94095;1195;81908;-65
2021/10/05 02:21:25;;;;;;;21.80;13.70;;;;;;;11.97;77.91;100795.90;94074;1195;99500;-65
2021/10/05 02:24:40;;;;;;;22.90;15.30;;;;;;;11.96;78.06;100796.92;94115;1195;87192;-66
2021/10/05 02:26:01;;;;;;;20.60;13.90;;;;;;;11.93;78.04;100795.98;94098;1196;93466;-70
2021/10/05 02:28:06;;;;;;;19.60;14.20;;;;;;;11.92;77.96;100791.70;94086;1196;79867;-70
2021/10/05 02:30:12;;;;;;;19.70;14.60;;;;;;;11.92;77.94;100791.32;94060;1195;82304;-64
2021/10/05 02:32:19;;;;;;;22.80;14.70;;;;;;;11.88;78.18;100792.33;94104;1195;98482;-65
2021/10/05 02:34:24;;;;;;;22.80;14.80;;;;;;;11.85;78.25;100789.58;94098;1195;86457;-65
2021/10/05 02:36:28;;;;;;;24.40;16.40;;;;;;;11.84;78.32;100788.61;94028;1195;94308;-64
2021/10/05 02:38:32;;;;;;;21.60;15.40;;;;;;;11.83;78.21;100789.88;94110;1195;80984;-69
2021/10/05 02:40:36;;;;;;;21.90;15.70;;;;;;;11.81;78.19;100793.19;94074;1195;80310;-65
2021/10/05 02:42:41;;;;;;;23.60;15.20;;;;;;;11.80;78.19;100798.69;94014;1195;100203;-65
2021/10/05 02:44:54;;;;;;;23.40;15.20;;;;;;;11.82;78.16;100799.39;94083;1195;87413;-64
2021/10/05 02:46:59;;;;;;;20.90;15.40;;;;;;;11.81;78.34;100799.30;94013;1195;95167;-69
2021/10/05 02:49:04;;;;;;;20.20;14.50;;;;;;;11.81;78.22;100790.36;94076;1196;77782;-67
2021/10/05 02:51:08;;;;;;;19.70;14.50;;;;;;;11.78;78.17;100790.17;94084;1195;82308;-65
2021/10/05 02:53:13;;;;;;;24.80;14.70;;;;;;;11.74;78.27;100790.80;94068;1195;98768;-64
2021/10/05 02:55:17;;;;;;;20.30;14.10;;;;;;;11.72;78.24;100788.70;94068;1195;87648;-69
2021/10/05 02:57:22;;;;;;;23.60;14.80;;;;;;;11.71;78.27;100789.69;94052;1195;93062;-68
2021/10/05 02:59:28;;;;;;;23.60;14.90;;;;;;;11.70;78.32;100790.20;94058;1195;80089;-70
2021/10/05 03:01:35;;;;;;;23.00;14.90;;;;;;;11.70;78.40;100789.99;94037;1195;80402;-65
2021/10/05 03:03:40;;;;;;;23.80;15.90;;;;;;;11.69;78.45;100787.73;94036;1196;99824;-65
2021/10/05 03:05:44;;;;;;;23.40;15.20;;;;;;;11.67;78.53;100788.78;94024;1195;88694;-69
2021/10/05 03:07:48;;;;;;;24.80;14.80;;;;;;;11.64;78.50;100786.46;94063;1196;92801;-70
2021/10/05 03:09:52;;;;;;;23.30;15.10;;;;;;;11.63;78.37;100783.20;94055;1196;81541;-65
2021/10/05 03:11:56;;;;;;;23.50;13.80;;;;;;;11.60;78.44;100778.58;94004;1196;81417;-65
2021/10/05 03:14:00;;;;;;;22.40;14.60;;;;;;;11.60;78.49;100783.69;94049;1195;99749;-65
2021/10/05 03:16:06;;;;;;;25.80;15.10;;;;;;;11.60;78.52;100788.02;94053;1195;86553;-66
2021/10/05 03:18:11;;;;;;;23.40;15.30;;;;;;;11.60;78.50;100793.64;94114;1196;95235;-64
2021/10/05 03:20:18;;;;;;;21.40;13.90;;;;;;;11.59;78.49;100791.23;94010;1195;79720;-68
2021/10/05 03:22:22;;;;;;;22.50;14.30;;;;;;;11.57;78.47;100784.98;94024;1195;81789;-70
2021/10/05 03:24:29;;;;;;;21.10;14.10;;;;;;;11.56;78.48;100782.23;94019;1196;100569;-70
2021/10/05 03:26:34;;;;;;;25.10;15.80;;;;;;;11.56;78.45;100786.92;94077;1196;87650;-62
2021/10/05 03:28:38;;;;;;;26.70;14.80;;;;;;;11.55;78.50;100790.18;93684;1196;94119;-67
2021/10/05 03:30:43;;;;;;;23.20;14.50;;;;;;;11.55;78.54;100787.73;93991;1195;78721;-69
2021/10/05 03:32:47;;;;;;;20.90;14.70;;;;;;;11.55;78.52;100787.40;94066;1196;81930;-70
2021/10/05 03:34:51;;;;;;;22.00;15.00;;;;;;;11.53;78.41;100784.14;94028;1195;98675;-65
2021/10/05 03:36:55;;;;;;;21.60;13.90;;;;;;;11.52;78.54;100781.25;94011;1195;87528;-64
2021/10/05 03:39:00;;;;;;;21.80;13.60;;;;;;;11.49;78.66;100782.70;93971;1195;94320;-67
2021/10/05 03:41:09;;;;;;;25.00;14.00;;;;;;;11.49;78.65;100782.73;94033;1196;80405;-66
2021/10/05 03:43:13;;;;;;;21.80;14.00;;;;;;;11.50;78.66;100776.98;94075;1189;80670;-69
2021/10/05 03:45:17;;;;;;;23.20;14.80;;;;;;;11.52;78.57;100779.65;94017;1195;100059;-68
2021/10/05 03:47:21;;;;;;;20.60;14.00;;;;;;;11.50;78.65;100776.77;94036;1195;87407;-69
2021/10/05 03:49:26;;;;;;;24.00;14.60;;;;;;;11.48;78.58;100777.14;93998;1196;94571;-69
2021/10/05 03:51:33;;;;;;;19.60;13.20;;;;;;;11.46;78.58;100773.83;94040;1196;80749;-64
2021/10/05 03:53:38;;;;;;;20.00;14.00;;;;;;;11.44;78.50;100773.92;94052;1195;81807;-63
2021/10/05 03:55:42;;;;;;;19.70;13.70;;;;;;;11.44;78.47;100774.06;94035;1196;99355;-67
2021/10/05 03:57:47;;;;;;;23.20;13.30;;;;;;;11.44;78.60;100776.09;94035;1195;87484;-70
2021/10/05 03:59:54;;;;;;;22.50;14.40;;;;;;;11.44;78.63;100777.85;93998;1195;94268;-67
2021/10/05 04:01:58;;;;;;;20.80;13.90;;;;;;;11.44;78.50;100779.48;93873;1195;80351;-70
2021/10/05 04:04:02;;;;;;;23.70;14.90;;;;;;;11.44;78.54;100776.27;94086;1195;80976;-68
2021/10/05 04:06:06;;;;;;;28.80;14.50;;;;;;;11.43;78.57;100774.36;94033;1195;99894;-64
2021/10/05 04:08:11;;;;;;;22.90;13.90;;;;;;;11.43;78.61;100776.38;94020;1196;86539;-65
2021/10/05 04:10:15;;;;;;;20.00;13.80;;;;;;;11.43;78.48;100780.52;94029;1196;93683;-70
2021/10/05 04:12:19;;;;;;;23.40;13.90;;;;;;;11.43;78.55;100776.08;94007;1195;78200;-69
2021/10/05 04:14:24;;;;;;;20.60;13.90;;;;;;;11.42;78.58;100777.27;94017;1196;81250;-69
2021/10/05 04:16:28;;;;;;;21.90;14.20;;;;;;;11.41;78.51;100775.55;94021;1195;100055;-71
2021/10/05 04:18:35;;;;;;;23.10;13.40;;;;;;;11.39;78.60;100768.38;94070;1196;86164;-72
2021/10/05 04:20:39;;;;;;;21.50;12.90;;;;;;;11.41;78.47;100769.40;94023;1196;94482;-66
2021/10/05 04:22:47;;;;;;;22.00;13.80;;;;;;;11.44;78.51;100769.27;94018;1195;79711;-66
2021/10/05 04:24:51;;;;;;;21.70;13.40;;;;;;;11.44;78.51;100767.10;94037;1196;81618;-67
2021/10/05 04:26:55;;;;;;;22.90;13.70;;;;;;;11.45;78.52;100767.88;94017;1195;100612;-66
2021/10/05 04:29:00;;;;;;;25.20;13.90;;;;;;;11.44;78.50;100760.41;94064;1196;87249;-63
2021/10/05 04:31:04;;;;;;;20.70;13.10;;;;;;;11.42;78.44;100761.88;94052;1196;94200;-69
2021/10/05 04:33:08;;;;;;;21.00;13.30;;;;;;;11.40;78.43;100761.64;94077;1195;79984;-70
2021/10/05 04:35:13;;;;;;;21.30;13.10;;;;;;;11.40;78.43;100764.67;94038;1195;81594;-65
2021/10/05 04:37:17;;;;;;;19.00;12.60;;;;;;;11.40;78.36;100765.27;93996;1196;98842;-64
2021/10/05 04:39:21;;;;;;;19.10;12.70;;;;;;;11.38;78.46;100762.80;94055;1196;86860;-64
2021/10/05 04:41:26;;;;;;;20.30;12.90;;;;;;;11.37;78.47;100769.41;94031;1195;93011;-70
2021/10/05 04:43:30;;;;;;;17.20;12.10;;;;;;;11.35;78.36;100769.79;94002;1195;81454;-71
2021/10/05 04:45:34;;;;;;;20.80;13.10;;;;;;;11.34;78.36;100770.86;94018;1196;81553;-63
2021/10/05 04:47:38;;;;;;;20.70;12.50;;;;;;;11.33;78.33;100775.17;93859;1195;98208;-64
2021/10/05 04:49:43;;;;;;;19.80;13.00;;;;;;;11.33;78.38;100770.48;94034;1195;87162;-65
2021/10/05 04:51:51;;;;;;;20.60;13.60;;;;;;;11.34;78.38;100776.65;94031;1196;93801;-64
2021/10/05 04:53:55;;;;;;;20.20;12.30;;;;;;;11.33;78.28;100775.61;94037;1196;77162;-63
2021/10/05 04:56:01;;;;;;;22.30;14.40;;;;;;;11.31;78.48;100779.27;94000;1195;82443;-69
2021/10/05 04:58:05;;;;;;;17.90;12.50;;;;;;;11.30;78.36;100772.46;94024;1195;100200;-68
2021/10/05 05:00:15;;;;;;;20.10;12.30;;;;;;;11.30;78.34;100767.73;94068;1196;86630;-65
2021/10/05 05:02:19;;;;;;;24.40;12.90;;;;;;;11.31;78.40;100767.91;93968;1196;94294;-64
2021/10/05 05:04:23;;;;;;;18.70;11.90;;;;;;;11.32;78.35;100761.94;94024;1195;79164;-63
2021/10/05 05:06:28;;;;;;;22.80;12.50;;;;;;;11.33;78.27;100763.33;94022;1196;80264;-64
2021/10/05 05:08:35;;;;;;;19.50;11.60;;;;;;;11.36;78.34;100759.99;94006;1196;98884;-64
2021/10/05 05:10:40;;;;;;;18.40;12.70;;;;;;;11.38;78.31;100760.98;94061;1196;87191;-70
2021/10/05 05:12:44;;;;;;;21.90;12.50;;;;;;;11.42;78.24;100763.41;94023;1195;94238;-70
2021/10/05 05:14:51;;;;;;;22.70;13.50;;;;;;;11.44;78.22;100757.70;94024;1196;78185;-67
2021/10/05 05:16:55;;;;;;;17.80;10.80;;;;;;;11.44;78.18;100764.06;94023;1195;80504;-65
2021/10/05 05:18:59;;;;;;;18.80;12.00;;;;;;;11.40;78.24;100764.28;94008;1196;98096;-64
2021/10/05 05:21:06;;;;;;;18.90;12.00;;;;;;;11.43;78.13;100764.67;94032;1195;87422;-70
2021/10/05 05:23:10;;;;;;;16.70;12.00;;;;;;;11.46;78.17;100759.60;93999;1196;93457;-72
2021/10/05 05:25:15;;;;;;;18.70;12.70;;;;;;;11.51;78.12;100757.59;94007;1195;80596;-64
2021/10/05 05:27:23;;;;;;;18.10;12.50;;;;;;;11.54;78.10;100761.44;94047;1195;80944;-65
2021/10/05 05:29:27;;;;;;;17.70;11.70;;;;;;;11.60;78.05;100765.50;94033;1195;99448;-65
2021/10/05 05:31:31;;;;;;;20.70;12.00;;;;;;;11.65;77.97;100765.41;94023;1195;87411;-69
2021/10/05 05:33:35;;;;;;;20.30;12.30;;;;;;;11.72;77.92;100770.73;94003;1196;94252;-70
2021/10/05 05:35:39;;;;;;;20.40;11.70;;;;;;;11.78;77.85;100768.33;94028;1196;79874;-64
2021/10/05 05:37:44;;;;;;;16.80;12.20;;;;;;;11.86;77.85;100774.67;94022;1195;82664;-68
2021/10/05 05:39:48;;;;;;;18.50;11.80;;;;;;;11.98;77.77;100775.24;93988;1196;98119;-69
2021/10/05 05:41:53;;;;;;;16.50;11.50;;;;;;;12.13;77.77;100771.92;94012;1195;87820;-64
2021/10/05 05:43:57;;;;;;;17.30;11.30;;;;;;;12.31;77.52;100766.11;94009;1195;92632;-64
2021/10/05 05:46:01;;;;;;;18.90;12.00;;;;;;;12.62;77.14;100767.13;94052;1196;78845;-70
2021/10/05 05:48:07;;;;;;;21.30;10.60;;;;;;;12.74;76.78;100770.08;94055;1195;82089;-69
2021/10/05 05:50:11;;;;;;;17.20;10.50;;;;;;;12.75;76.49;100768.67;94004;1196;99236;-65
2021/10/05 05:52:18;;;;;;;15.20;10.60;;;;;;;12.67;76.33;100772.06;94038;1195;89179;-64
2021/10/05 05:54:22;;;;;;;16.20;11.10;;;;;;;12.63;76.14;100772.73;94032;1196;93459;-65
2021/10/05 05:56:27;;;;;;;16.70;11.60;;;;;;;12.68;76.09;100770.83;94006;1196;80074;-64
2021/10/05 05:58:31;;;;;;;15.80;10.80;;;;;;;12.73;75.74;100773.66;93998;1196;81885;-70
2021/10/05 06:00:35;;;;;;;20.60;10.70;;;;;;;12.82;75.63;100776.09;93987;1186;99324;-65
2021/10/05 06:02:39;;;;;;;15.40;11.30;;;;;;;12.98;75.31;100778.77;94021;1196;87013;-64
2021/10/05 06:04:44;;;;;;;16.80;11.40;;;;;;;13.00;75.23;100779.71;93996;1196;94369;-65
2021/10/05 06:06:49;;;;;;;19.30;10.90;;;;;;;13.10;75.18;100772.48;94058;1196;79736;-68
2021/10/05 06:08:54;;;;;;;13.70;10.00;;;;;;;13.21;74.91;100770.55;94094;1195;82130;-69
2021/10/05 06:10:58;;;;;;;15.80;10.90;;;;;;;13.33;74.65;100773.33;93974;1196;97982;-69
2021/10/05 06:13:03;;;;;;;16.20;10.70;;;;;;;13.33;74.32;100771.86;94061;1195;88482;-69
2021/10/05 06:15:11;;;;;;;17.50;11.10;;;;;;;13.29;74.12;100774.92;93969;1196;94084;-66
2021/10/05 06:17:15;;;;;;;15.00;10.10;;;;;;;13.30;74.06;100776.22;93996;1196;79424;-70
2021/10/05 06:19:19;;;;;;;16.10;10.60;;;;;;;13.26;73.82;100774.60;94024;1195;82070;-70
2021/10/05 06:21:24;;;;;;;15.80;10.90;;;;;;;13.27;73.91;100772.15;94044;1196;101965;-70
2021/10/05 06:23:31;;;;;;;17.40;10.50;;;;;;;13.38;73.82;100767.97;93995;1196;87863;-68
2021/10/05 06:25:40;;;;;;;16.80;10.00;;;;;;;13.53;73.66;100765.11;93989;1180;93967;-64
2021/10/05 06:27:47;;;;;;;19.50;10.80;;;;;;;13.56;73.32;100759.27;93971;1196;79574;-66
2021/10/05 06:29:54;;;;;;;14.60;10.50;;;;;;;13.50;73.03;100761.54;94023;1195;82914;-69
2021/10/05 06:31:58;;;;;;;17.40;10.20;;;;;;;13.42;72.93;100755.77;94013;1195;99465;-68
2021/10/05 06:34:03;;;;;;;14.30;9.20;;;;;;;13.42;72.99;100751.84;94029;1196;87040;-63
2021/10/05 06:36:07;;;;;;;14.50;10.00;;;;;;;13.42;72.82;100753.52;93991;1195;93214;-69
2021/10/05 06:38:14;;;;;;;14.10;9.70;;;;;;;13.42;72.90;100750.89;94026;1196;80711;-72
2021/10/05 06:40:19;;;;;;;20.40;11.10;;;;;;;13.43;72.70;100752.09;94056;1195;80428;-70
2021/10/05 06:42:26;;;;;;;20.00;10.50;;;;;;;13.48;72.73;100743.07;94025;1196;99575;-70
2021/10/05 06:44:30;;;;;;;17.00;9.90;;;;;;;13.44;72.50;100748.55;94042;1195;87097;-71
2021/10/05 06:46:34;;;;;;;15.60;10.20;;;;;;;13.38;72.21;100745.21;93981;1195;93488;-70
2021/10/05 06:48:38;;;;;;;17.30;9.80;;;;;;;13.33;72.42;100740.72;94003;1195;78669;-74
2021/10/05 06:50:43;;;;;;;16.40;9.60;;;;;;;13.36;72.46;100737.33;93986;1196;81056;-69
2021/10/05 06:52:49;;;;;;;15.50;10.00;;;;;;;13.40;72.41;100730.79;93700;1196;98217;-66
2021/10/05 06:54:56;;;;;;;34.40;22.50;;;;;;;13.41;72.17;100738.36;93978;1196;87497;-71
2021/10/05 06:57:02;;;;;;;27.80;20.00;;;;;;;13.40;72.25;100739.43;94013;1195;94348;-71
2021/10/05 06:59:06;;;;;;;17.50;10.40;;;;;;;13.44;72.07;100744.21;94034;1196;77070;-70
2021/10/05 07:01:10;;;;;;;22.30;10.90;;;;;;;13.44;72.17;100740.51;94023;1196;79894;-71
2021/10/05 07:03:14;;;;;;;13.80;9.60;;;;;;;13.40;72.03;100742.89;94007;1195;99777;-69
2021/10/05 07:05:21;;;;;;;16.50;9.70;;;;;;;13.36;72.07;100735.45;94065;1195;87013;-79
2021/10/05 07:07:25;;;;;;;15.50;10.10;;;;;;;13.29;72.01;100732.94;94019;1196;93568;-79
2021/10/05 07:09:29;;;;;;;16.50;9.30;;;;;;;13.31;72.10;100738.63;93985;1196;81111;-79
2021/10/05 07:11:35;;;;;;;15.80;9.00;;;;;;;13.34;72.03;100737.73;94023;1196;80471;-69
2021/10/05 07:13:39;;;;;;;13.20;8.60;;;;;;;13.41;72.21;100736.98;94021;1196;97826;-73
2021/10/05 07:15:43;;;;;;;16.20;9.80;;;;;;;13.55;72.27;100736.89;93998;1195;88089;-69
2021/10/05 07:17:50;;;;;;;14.50;9.40;;;;;;;13.71;71.99;100735.05;94000;1196;93630;-69
2021/10/05 07:19:55;;;;;;;17.60;10.00;;;;;;;13.79;71.93;100738.17;94000;1196;79224;-67
2021/10/05 07:22:02;;;;;;;15.40;9.20;;;;;;;13.87;71.97;100741.89;93994;1196;81507;-67
2021/10/05 07:24:07;;;;;;;15.40;9.20;;;;;;;13.97;71.96;100740.80;94039;1196;98111;-69
2021/10/05 07:26:11;;;;;;;14.10;9.10;;;;;;;13.99;71.63;100738.70;93985;1196;88663;-68
2021/10/05 07:28:15;;;;;;;18.30;9.60;;;;;;;14.00;71.74;100739.61;94010;1196;94381;-71
2021/10/05 07:30:23;;;;;;;15.00;9.20;;;;;;;14.06;71.48;100738.51;94003;1196;79726;-70
2021/10/05 07:32:31;;;;;;;13.90;8.90;;;;;;;14.14;71.40;100732.05;94010;1195;79783;-71
2021/10/05 07:34:35;;;;;;;14.20;8.90;;;;;;;14.22;71.37;100740.06;94015;1195;98424;-70
2021/10/05 07:36:39;;;;;;;14.20;8.80;;;;;;;14.36;71.39;100740.21;93972;1195;87510;-69
2021/10/05 07:38:46;;;;;;;13.30;8.80;;;;;;;14.56;71.15;100747.11;94022;1195;95374;-70
2021/10/05 07:40:50;;;;;;;13.70;8.90;;;;;;;15.07;71.25;100742.65;94020;1196;79608;-69
2021/10/05 07:42:57;;;;;;;15.60;9.20;;;;;;;16.12;70.81;100737.81;94061;1196;80954;-68
2021/10/05 07:45:07;;;;;;;34.50;22.50;;;;;;;16.82;69.63;100736.93;93985;1196;98707;-69
2021/10/05 07:47:14;;;;;;;46.00;33.60;;;;;;;16.80;68.62;100737.09;93971;1195;87919;-68
2021/10/05 07:49:18;;;;;;;19.90;14.00;;;;;;;16.53;67.77;100736.79;93992;1195;94159;-68
2021/10/05 07:51:27;;;;;;;16.90;9.30;;;;;;;16.33;67.66;100734.59;93995;1196;77245;-71
2021/10/05 07:53:31;;;;;;;14.80;8.80;;;;;;;16.32;68.10;100732.42;93994;1195;81095;-70
2021/10/05 07:55:35;;;;;;;14.00;9.40;;;;;;;16.46;68.24;100731.92;94012;1196;99536;-67
2021/10/05 07:57:44;;;;;;;15.30;9.10;;;;;;;17.21;68.13;100736.34;94056;1196;88406;-70
2021/10/05 07:59:50;;;;;;;13.90;8.50;;;;;;;18.31;67.02;100730.92;94079;1196;93443;-68
2021/10/05 08:01:54;;;;;;;12.40;8.60;;;;;;;19.73;65.35;100735.93;93994;1195;79894;-70
2021/10/05 08:03:58;;;;;;;15.30;8.60;;;;;;;21.03;63.88;100728.71;94059;1195;81244;-68
2021/10/05 08:06:02;;;;;;;13.60;8.20;;;;;;;21.78;60.87;100725.26;93969;1196;97886;-68
2021/10/05 08:08:08;;;;;;;15.90;8.00;;;;;;;22.43;60.26;100722.44;93710;1197;86531;-68
2021/10/05 08:10:14;;;;;;;13.10;8.00;;;;;;;23.20;59.06;100719.86;94028;1196;94857;-70
2021/10/05 08:12:18;;;;;;;13.50;8.40;;;;;;;23.69;56.21;100723.63;94033;1195;78524;-69
2021/10/05 08:14:23;;;;;;;12.40;7.90;;;;;;;23.42;55.24;100716.28;93981;1196;81823;-70
2021/10/05 08:16:30;;;;;;;12.80;8.10;;;;;;;23.12;54.37;100707.89;94036;1190;99196;-68
2021/10/05 08:18:34;;;;;;;11.40;7.40;;;;;;;23.20;54.04;100705.10;93972;1195;87360;-69
2021/10/05 08:20:40;;;;;;;10.60;6.60;;;;;;;23.40;53.01;100705.46;93963;1196;94047;-70
2021/10/05 08:22:44;;;;;;;14.80;7.70;;;;;;;23.57;50.60;100707.00;93994;1190;78751;-71
2021/10/05 08:24:52;;;;;;;9.20;7.20;;;;;;;23.97;52.14;100704.79;93998;1196;80326;-68
2021/10/05 08:26:56;;;;;;;8.40;7.10;;;;;;;24.39;50.13;100706.55;94007;1196;99188;-69
2021/10/05 08:29:00;;;;;;;11.10;7.50;;;;;;;24.67;49.63;100702.16;93990;1196;87514;-69
2021/10/05 08:31:05;;;;;;;10.50;7.20;;;;;;;24.88;49.40;100700.12;94025;1196;95136;-70
2021/10/05 08:33:09;;;;;;;13.40;7.00;;;;;;;25.25;49.83;100698.15;94031;1196;79195;-71
2021/10/05 08:35:17;;;;;;;11.60;7.40;;;;;;;25.38;49.33;100692.82;94003;1196;82055;-68
2021/10/05 08:37:22;;;;;;;10.10;7.20;;;;;;;24.92;47.47;100695.52;93978;1196;100268;-70
2021/10/05 08:39:29;;;;;;;10.80;7.80;;;;;;;24.54;48.67;100697.23;93987;1196;87748;-69
2021/10/05 08:41:34;;;;;;;11.70;7.70;;;;;;;24.58;47.85;100701.38;94042;1196;94591;-68
2021/10/05 08:43:42;;;;;;;10.50;7.10;;;;;;;24.75;48.46;100700.09;93998;1195;77520;-69
2021/10/05 08:45:46;;;;;;;11.20;7.80;;;;;;;25.16;47.56;100697.00;94048;1196;80012;-70
2021/10/05 08:47:51;;;;;;;12.70;7.50;;;;;;;25.56;47.97;100707.46;93982;1195;98605;-70
2021/10/05 08:49:55;;;;;;;9.50;7.10;;;;;;;25.90;47.02;100704.38;94045;1196;87097;-69
2021/10/05 08:52:03;;;;;;;9.30;6.60;;;;;;;26.25;46.98;100699.64;93962;1196;93356;-69
2021/10/05 08:54:10;;;;;;;10.30;6.50;;;;;;;26.36;45.48;100696.30;94041;1196;79613;-68
2021/10/05 08:56:16;;;;;;;10.50;6.90;;;;;;;26.23;44.81;100689.23;94033;1196;79898;-70
2021/10/05 08:58:20;;;;;;;10.60;7.00;;;;;;;26.24;44.28;100685.02;94025;1190;100864;-70
2021/10/05 09:00:32;;;;;;;9.80;6.90;;;;;;;26.39;44.76;100681.44;94033;1196;86966;-69
2021/10/05 09:02:50;;;;;;;10.80;7.20;;;;;;;26.43;43.78;100686.40;93985;1196;93932;-69
2021/10/05 09:04:57;;;;;;;10.60;6.30;;;;;;;26.43;43.96;100683.02;94041;1196;81001;-70
2021/10/05 09:07:02;;;;;;;10.80;6.70;;;;;;;26.53;44.20;100678.73;93983;1195;81750;-69
2021/10/05 09:09:06;;;;;;;10.70;6.80;;;;;;;26.75;43.85;100681.58;94045;1196;100385;-70
2021/10/05 09:11:14;;;;;;;9.90;6.20;;;;;;;26.51;42.47;100678.36;94015;1196;87990;-69
2021/10/05 09:13:30;;;;;;;10.50;6.50;;;;;;;26.63;43.66;100674.17;94027;1195;92776;-69
2021/10/05 09:15:37;;;;;;;8.90;6.80;;;;;;;27.14;43.75;100675.27;94031;1196;79695;-69
2021/10/05 09:17:54;;;;;;;11.80;6.90;;;;;;;27.11;42.69;100673.80;94012;1195;82025;-69
2021/10/05 09:19:59;;;;;;;10.90;7.10;;;;;;;27.05;43.11;100665.87;94058;1196;99398;-70
2021/10/05 09:22:14;;;;;;;10.40;6.60;;;;;;;27.14;42.44;100667.99;94042;1196;87747;-69
2021/10/05 09:24:32;;;;;;;13.40;6.70;;;;;;;27.07;41.89;100664.73;94065;1196;94804;-70
2021/10/05 09:26:45;;;;;;;10.70;6.80;;;;;;;27.02;42.37;100667.11;94052;1189;80873;-70
2021/10/05 09:28:52;;;;;;;9.50;6.60;;;;;;;26.87;41.74;100669.77;93733;1196;81946;-68
2021/10/05 09:31:04;;;;;;;8.40;6.40;;;;;;;26.01;41.62;100664.85;94040;1180;100546;-69
2021/10/05 09:33:10;;;;;;;11.30;6.70;;;;;;;25.86;41.76;100656.33;94011;1195;87562;-70